Time;durP1;ratioP1;P1;durP2;ratioP2;P2;SDS_P1;SDS_P2;PMS_P1;PMS_P2;Temp;Humidity;BMP_temperature;BMP_pressure;BME280_temperature;BME280_humidity;BME280_pressure;Samples;Min_cycle;Max_cycle;Signal;HPM_P1;HPM_P2
2023/01/07 00:01:52;;;;;;;16.60;10.52;;;5.70;99.90;;;;;;5226017;28;20025;-80
2023/01/07 00:04:23;;;;;;;18.63;9.90;;;6.00;99.90;;;;;;5226038;28;20079;-80
2023/01/07 00:06:54;;;;;;;19.17;10.48;;;6.10;99.90;;;;;;5225763;28;20022;-78
2023/01/07 00:09:25;;;;;;;13.95;9.05;;;5.80;99.90;;;;;;5225977;28;20033;-79
2023/01/07 00:11:56;;;;;;;17.58;11.43;;;5.90;99.90;;;;;;5226415;28;20031;-80
2023/01/07 00:14:26;;;;;;;18.30;10.98;;;5.60;99.90;;;;;;5227564;28;20029;-78
2023/01/07 00:16:57;;;;;;;17.05;11.05;;;5.60;99.90;;;;;;5225764;28;20836;-80
2023/01/07 00:19:28;;;;;;;16.00;9.93;;;5.50;99.90;;;;;;5227070;28;20509;-80
2023/01/07 00:21:59;;;;;;;19.63;12.18;;;5.80;99.90;;;;;;5228740;28;20037;-79
2023/01/07 00:24:30;;;;;;;20.20;12.38;;;5.70;99.90;;;;;;5230373;28;20074;-78
2023/01/07 00:27:01;;;;;;;18.15;13.13;;;5.50;99.90;;;;;;5231335;28;20028;-78
2023/01/07 00:29:31;;;;;;;16.55;11.07;;;5.40;99.90;;;;;;5231168;28;20021;-78
2023/01/07 00:32:02;;;;;;;18.08;11.70;;;5.40;99.90;;;;;;5231132;28;20052;-79
2023/01/07 00:34:33;;;;;;;17.23;10.15;;;5.50;99.90;;;;;;5230806;28;20064;-79
2023/01/07 00:37:48;;;;;;;13.88;10.32;;;5.60;99.90;;;;;;5230122;28;20029;-79
2023/01/07 00:40:07;;;;;;;14.75;10.13;;;5.40;99.90;;;;;;5230450;28;20061;-79
2023/01/07 00:42:53;;;;;;;28.65;20.67;;;5.40;99.90;;;;;;5231026;28;20025;-79
2023/01/07 00:45:35;;;;;;;17.80;12.82;;;5.10;99.90;;;;;;5229539;28;20033;-77
2023/01/07 00:48:10;;;;;;;20.63;11.07;;;5.20;99.90;;;;;;5230616;28;20544;-78
2023/01/07 00:50:50;;;;;;;11.35;7.88;;;5.20;99.90;;;;;;5229467;28;20389;-78
2023/01/07 00:53:29;;;;;;;13.57;8.38;;;5.20;99.90;;;;;;5230558;28;20032;-78
2023/01/07 00:56:00;;;;;;;12.48;8.30;;;5.30;99.90;;;;;;5230605;28;20436;-79
2023/01/07 00:58:31;;;;;;;14.48;9.13;;;5.30;99.90;;;;;;5230643;28;20142;-80
2023/01/07 01:01:02;;;;;;;18.40;10.80;;;5.10;99.90;;;;;;5230663;28;20068;-78
2023/01/07 01:03:33;;;;;;;20.33;10.60;;;4.90;99.90;;;;;;5230569;28;20063;-80
2023/01/07 01:06:15;;;;;;;17.45;11.77;;;4.80;99.90;;;;;;5230531;28;20055;-79
2023/01/07 01:08:46;;;;;;;19.50;12.52;;;4.90;99.90;;;;;;5230655;28;20090;-80
2023/01/07 01:11:17;;;;;;;17.98;13.90;;;4.70;99.90;;;;;;5230060;28;20480;-78
2023/01/07 01:13:48;;;;;;;16.60;11.82;;;4.60;99.90;;;;;;5230184;28;20078;-79
2023/01/07 01:16:19;;;;;;;29.65;22.42;;;4.40;99.90;;;;;;5230906;28;20032;-78
2023/01/07 01:18:49;;;;;;;19.75;13.32;;;4.40;99.90;;;;;;5230298;28;20047;-78
2023/01/07 01:21:20;;;;;;;16.50;13.75;;;4.60;99.90;;;;;;5228606;28;20495;-79
2023/01/07 01:23:51;;;;;;;19.95;13.77;;;4.60;99.90;;;;;;5228810;28;20352;-80
2023/01/07 01:26:22;;;;;;;21.25;11.55;;;4.50;99.90;;;;;;5230143;28;20032;-79
2023/01/07 01:28:53;;;;;;;15.77;11.98;;;4.70;99.90;;;;;;5230059;28;20025;-80
2023/01/07 01:31:24;;;;;;;19.52;11.90;;;4.50;99.90;;;;;;5229977;28;20100;-80
2023/01/07 01:33:56;;;;;;;22.35;12.63;;;4.50;99.90;;;;;;5229664;28;20119;-80
2023/01/07 01:36:27;;;;;;;18.42;12.40;;;4.50;99.90;;;;;;5230078;28;20029;-80
2023/01/07 01:38:57;;;;;;;18.65;12.63;;;4.60;99.90;;;;;;5229521;28;20374;-78
2023/01/07 01:41:28;;;;;;;17.88;10.48;;;4.80;99.90;;;;;;5229565;28;20508;-80
2023/01/07 01:44:00;;;;;;;17.52;12.25;;;4.70;99.90;;;;;;5228629;28;20563;-79
2023/01/07 01:46:43;;;;;;;15.30;10.18;;;4.90;99.90;;;;;;5229988;28;20025;-77
2023/01/07 01:49:37;;;;;;;17.67;10.48;;;4.80;99.90;;;;;;5228682;28;20027;-80
2023/01/07 01:52:17;;;;;;;21.52;11.35;;;4.70;99.90;;;;;;5229660;28;20353;-79
2023/01/07 01:54:53;;;;;;;16.53;10.77;;;5.00;99.90;;;;;;5228328;28;20390;-80
2023/01/07 01:57:27;;;;;;;17.88;12.43;;;5.20;99.90;;;;;;5227693;28;20028;-80
2023/01/07 01:59:59;;;;;;;15.50;10.50;;;5.10;99.90;;;;;;5229317;28;20392;-80
2023/01/07 02:02:36;;;;;;;16.85;11.30;;;4.90;99.90;;;;;;5228115;28;20518;-79
2023/01/07 02:05:08;;;;;;;18.40;10.88;;;4.90;99.90;;;;;;5229659;28;20025;-78
2023/01/07 02:07:39;;;;;;;15.95;10.35;;;4.90;99.90;;;;;;5228098;28;20397;-79
2023/01/07 02:10:22;;;;;;;15.95;12.23;;;5.10;99.90;;;;;;5228069;28;20032;-79
2023/01/07 02:12:56;;;;;;;17.55;11.75;;;4.90;99.90;;;;;;5229205;28;20486;-79
2023/01/07 02:15:47;;;;;;;17.02;11.07;;;4.80;99.90;;;;;;5227942;28;20029;-78
2023/01/07 02:18:46;;;;;;;17.60;10.02;;;4.80;99.90;;;;;;5228488;28;20028;-80
2023/01/07 02:21:35;;;;;;;14.95;10.70;;;4.70;99.90;;;;;;5227768;28;20076;-79
2023/01/07 02:24:38;;;;;;;18.10;10.38;;;4.80;99.90;;;;;;5229034;28;20087;-80
2023/01/07 02:27:26;;;;;;;17.13;8.38;;;4.90;99.90;;;;;;5227689;28;20033;-79
2023/01/07 02:30:03;;;;;;;13.20;9.30;;;4.70;99.90;;;;;;5228834;28;20021;-80
2023/01/07 02:32:55;;;;;;;17.27;10.50;;;4.50;99.90;;;;;;5228760;28;20036;-79
2023/01/07 02:35:28;;;;;;;14.60;11.32;;;4.60;99.90;;;;;;5229175;28;20021;-78
2023/01/07 02:38:27;;;;;;;11.90;8.88;;;4.60;99.90;;;;;;5227342;28;20557;-79
2023/01/07 02:41:28;;;;;;;16.50;11.60;;;4.60;99.90;;;;;;5225659;28;20080;-78
2023/01/07 02:44:24;;;;;;;19.42;11.63;;;4.40;99.90;;;;;;5226606;28;20095;-79
2023/01/07 02:47:08;;;;;;;19.60;12.15;;;4.40;99.90;;;;;;5227690;28;20360;-80
2023/01/07 02:49:39;;;;;;;19.90;13.45;;;4.10;99.90;;;;;;5227242;28;20033;-78
2023/01/07 02:52:22;;;;;;;18.75;13.13;;;4.10;99.90;;;;;;5228173;28;20115;-79
2023/01/07 02:55:04;;;;;;;21.10;14.25;;;4.30;99.90;;;;;;5227205;28;20112;-79
2023/01/07 02:57:50;;;;;;;20.52;14.60;;;4.30;99.90;;;;;;5227309;28;20021;-79
2023/01/07 03:00:51;;;;;;;19.67;12.65;;;4.40;99.90;;;;;;5226978;28;20047;-78
2023/01/07 03:03:41;;;;;;;16.15;11.68;;;4.50;99.90;;;;;;5228718;28;20025;-79
2023/01/07 03:06:41;;;;;;;18.63;12.65;;;4.00;99.90;;;;;;5228666;28;20039;-77
2023/01/07 03:09:22;;;;;;;15.85;11.35;;;4.30;99.90;;;;;;5219544;28;20124;-78
2023/01/07 03:12:30;;;;;;;20.38;13.23;;;4.20;99.90;;;;;;5226887;28;20095;-79
2023/01/07 03:15:16;;;;;;;20.42;14.23;;;3.80;99.90;;;;;;5228717;28;20028;-80
2023/01/07 03:18:10;;;;;;;17.23;13.77;;;3.90;99.90;;;;;;5228189;28;20025;-80
2023/01/07 03:20:43;;;;;;;21.83;13.48;;;4.00;99.90;;;;;;5226608;28;20037;-78
2023/01/07 03:23:18;;;;;;;22.90;13.55;;;4.20;99.90;;;;;;5226613;28;20028;-80
2023/01/07 03:25:52;;;;;;;18.95;12.45;;;3.60;99.90;;;;;;5228023;28;20032;-78
2023/01/07 03:28:27;;;;;;;20.52;12.95;;;3.80;99.90;;;;;;5226594;28;20031;-78
2023/01/07 03:31:00;;;;;;;22.52;14.07;;;3.30;99.90;;;;;;5227743;28;20025;-80
2023/01/07 03:33:46;;;;;;;21.15;15.10;;;3.30;99.90;;;;;;5227786;28;20024;-78
2023/01/07 03:36:22;;;;;;;18.63;13.27;;;3.70;99.90;;;;;;5227998;28;20025;-78
2023/01/07 03:38:54;;;;;;;25.23;16.88;;;4.10;99.90;;;;;;5227424;28;20132;-80
2023/01/07 03:44:15;;;;;;;28.13;18.23;;;3.40;99.90;;;;;;5228047;28;20044;-79
2023/01/07 03:46:46;;;;;;;20.52;14.82;;;3.20;99.90;;;;;;5226330;28;20029;-78
2023/01/07 03:49:17;;;;;;;21.63;16.23;;;3.40;99.90;;;;;;5227525;28;20033;-77
2023/01/07 03:51:48;;;;;;;24.75;16.88;;;3.10;99.90;;;;;;5227293;28;20029;-78
2023/01/07 03:54:20;;;;;;;22.70;15.57;;;3.20;99.90;;;;;;5226325;28;20116;-79
2023/01/07 03:56:51;;;;;;;21.60;16.70;;;3.10;99.90;;;;;;5231163;28;20484;-78
2023/01/07 03:59:21;;;;;;;24.80;15.55;;;3.10;99.90;;;;;;5232082;28;20033;-80
2023/01/07 04:01:52;;;;;;;25.90;16.92;;;3.30;99.90;;;;;;5231830;28;20025;-78
2023/01/07 04:04:23;;;;;;;26.45;17.10;;;3.30;99.90;;;;;;5230176;28;20495;-79
2023/01/07 04:06:54;;;;;;;22.95;16.83;;;3.30;99.90;;;;;;5230464;28;20025;-78
2023/01/07 04:09:25;;;;;;;23.20;15.77;;;3.00;99.90;;;;;;5229888;28;20037;-79
2023/01/07 04:11:56;;;;;;;27.58;14.68;;;2.80;99.90;;;;;;5231694;28;20029;-79
2023/01/07 04:14:26;;;;;;;22.92;14.38;;;3.20;99.90;;;;;;5231482;28;20100;-77
2023/01/07 04:16:57;;;;;;;22.40;16.17;;;3.50;99.90;;;;;;5231207;28;20033;-77
2023/01/07 04:19:28;;;;;;;22.20;15.45;;;3.10;99.90;;;;;;5229971;28;20033;-80
2023/01/07 04:21:59;;;;;;;22.73;16.90;;;2.70;99.90;;;;;;5231285;28;20526;-79
2023/01/07 04:24:31;;;;;;;25.20;16.23;;;2.70;99.90;;;;;;5231355;28;20028;-79
2023/01/07 04:27:02;;;;;;;23.90;15.77;;;2.90;99.90;;;;;;5231092;28;20029;-78
2023/01/07 04:29:33;;;;;;;22.50;15.40;;;2.90;99.90;;;;;;5230997;28;20100;-79
2023/01/07 04:32:04;;;;;;;21.10;14.63;;;3.10;99.90;;;;;;5229532;28;20029;-79
2023/01/07 04:34:34;;;;;;;19.48;12.95;;;3.30;99.90;;;;;;5231142;28;20476;-78
2023/01/07 04:37:06;;;;;;;25.02;15.55;;;3.30;99.90;;;;;;5229763;28;20032;-80
2023/01/07 04:39:36;;;;;;;20.20;14.77;;;2.70;99.90;;;;;;5229509;28;20053;-79
2023/01/07 04:42:07;;;;;;;20.42;14.18;;;2.90;99.90;;;;;;5231065;28;20031;-80
2023/01/07 04:44:38;;;;;;;22.05;15.27;;;2.60;99.90;;;;;;5231107;28;20440;-79
2023/01/07 04:47:09;;;;;;;20.42;14.57;;;2.70;99.90;;;;;;5229387;28;20112;-79
2023/01/07 04:49:40;;;;;;;16.63;12.38;;;3.00;99.90;;;;;;5230812;28;20067;-78
2023/01/07 04:52:10;;;;;;;21.48;13.15;;;3.10;99.90;;;;;;5230616;28;20031;-78
2023/01/07 04:54:41;;;;;;;20.48;13.48;;;2.90;99.90;;;;;;5229514;28;20025;-78
2023/01/07 04:57:12;;;;;;;21.85;15.55;;;2.90;99.90;;;;;;5229096;28;20036;-78
2023/01/07 04:59:43;;;;;;;20.15;13.10;;;2.70;99.90;;;;;;5230421;28;20037;-79
2023/01/07 05:02:14;;;;;;;19.30;14.50;;;2.60;99.90;;;;;;5229285;28;20064;-79
2023/01/07 05:04:46;;;;;;;19.38;15.27;;;2.80;99.90;;;;;;5229310;28;20025;-79
2023/01/07 05:07:16;;;;;;;19.85;14.25;;;3.00;99.90;;;;;;5229750;28;20071;-79
2023/01/07 05:09:47;;;;;;;19.17;11.60;;;2.80;99.90;;;;;;5230516;28;20026;-77
2023/01/07 05:12:18;;;;;;;20.25;13.80;;;3.10;99.90;;;;;;5229071;28;20484;-79
2023/01/07 05:14:49;;;;;;;17.55;13.88;;;2.80;99.90;;;;;;5230358;28;20185;-79
2023/01/07 05:17:21;;;;;;;16.85;12.15;;;2.80;99.90;;;;;;5230030;28;20039;-77
2023/01/07 05:19:52;;;;;;;16.98;13.15;;;2.60;99.90;;;;;;5228951;28;20037;-78
2023/01/07 05:22:23;;;;;;;16.30;13.90;;;2.90;99.90;;;;;;5228923;28;20070;-79
2023/01/07 05:24:53;;;;;;;17.35;13.23;;;3.00;99.90;;;;;;5230098;28;20139;-80
2023/01/07 05:27:24;;;;;;;18.85;14.00;;;2.80;99.90;;;;;;5228777;28;20127;-79
2023/01/07 05:29:55;;;;;;;19.33;12.68;;;2.70;99.90;;;;;;5230102;28;20074;-79
2023/01/07 05:32:26;;;;;;;18.80;13.23;;;2.80;99.90;;;;;;5228658;28;20025;-79
2023/01/07 05:34:57;;;;;;;16.83;12.48;;;2.60;99.90;;;;;;5229968;28;20028;-78
2023/01/07 05:37:28;;;;;;;24.25;13.90;;;2.70;99.90;;;;;;5230239;28;20154;-78
2023/01/07 05:39:59;;;;;;;16.60;12.40;;;2.60;99.90;;;;;;5229257;28;20135;-78
2023/01/07 05:42:30;;;;;;;17.75;13.60;;;2.60;99.90;;;;;;5230357;28;20108;-78
2023/01/07 05:45:01;;;;;;;20.27;13.73;;;2.50;99.90;;;;;;5229564;28;20029;-78
2023/01/07 05:47:32;;;;;;;16.85;13.18;;;2.60;99.90;;;;;;5229641;28;20087;-77
2023/01/07 05:50:03;;;;;;;17.45;13.18;;;2.60;99.90;;;;;;5228590;28;20025;-78
2023/01/07 05:52:34;;;;;;;18.10;11.05;;;2.60;99.90;;;;;;5228294;28;20021;-79
2023/01/07 05:55:05;;;;;;;16.35;10.85;;;2.70;99.90;;;;;;5230125;28;20021;-79
2023/01/07 05:57:36;;;;;;;15.93;11.20;;;2.70;99.90;;;;;;5229682;28;20071;-79
2023/01/07 06:00:09;;;;;;;16.27;10.82;;;2.40;99.90;;;;;;5229398;28;20044;-77
2023/01/07 06:02:40;;;;;;;16.63;12.73;;;2.60;99.90;;;;;;5229570;28;20338;-79
2023/01/07 06:05:10;;;;;;;18.58;13.82;;;2.10;99.90;;;;;;5228057;28;20031;-77
2023/01/07 06:07:41;;;;;;;14.95;11.52;;;2.00;99.90;;;;;;5228143;28;20017;-77
2023/01/07 06:10:12;;;;;;;18.40;12.05;;;2.30;99.90;;;;;;5229048;28;20040;-77
2023/01/07 06:12:43;;;;;;;17.98;13.43;;;2.20;99.90;;;;;;5229177;28;20029;-78
2023/01/07 06:15:14;;;;;;;20.83;13.60;;;2.20;99.90;;;;;;5227635;28;20040;-78
2023/01/07 06:17:45;;;;;;;21.63;15.85;;;2.40;99.90;;;;;;5227959;28;20119;-79
2023/01/07 06:20:16;;;;;;;23.30;17.98;;;2.40;99.90;;;;;;5226740;28;20036;-79
2023/01/07 06:22:46;;;;;;;25.77;19.70;;;2.50;99.90;;;;;;5229077;28;20021;-77
2023/01/07 06:25:17;;;;;;;24.05;16.38;;;2.50;99.90;;;;;;5228611;28;20496;-79
2023/01/07 06:27:48;;;;;;;24.08;16.27;;;2.30;99.90;;;;;;5229109;28;20033;-78
2023/01/07 06:30:19;;;;;;;23.77;18.08;;;2.70;99.90;;;;;;5229278;28;20572;-79
2023/01/07 06:32:50;;;;;;;27.83;20.55;;;2.80;99.90;;;;;;5244786;28;20040;-78
2023/01/07 06:35:21;;;;;;;18.33;15.15;;;2.80;99.90;;;;;;5270522;28;20099;-77
2023/01/07 06:37:52;;;;;;;17.80;13.50;;;2.90;99.90;;;;;;5268999;28;20404;-78
2023/01/07 06:40:23;;;;;;;16.50;12.38;;;3.10;99.90;;;;;;5269778;28;20056;-78
2023/01/07 06:42:54;;;;;;;15.07;11.95;;;3.30;99.90;;;;;;5270544;28;20057;-79
2023/01/07 06:45:25;;;;;;;16.92;12.10;;;3.30;99.90;;;;;;5269356;28;20032;-79
2023/01/07 06:47:57;;;;;;;19.50;11.63;;;3.40;99.90;;;;;;5268577;28;20020;-79
2023/01/07 06:50:28;;;;;;;18.25;12.02;;;3.40;99.90;;;;;;5268957;28;20028;-79
2023/01/07 06:52:58;;;;;;;19.05;12.32;;;3.60;99.90;;;;;;5270045;28;20422;-79
2023/01/07 06:55:29;;;;;;;21.73;13.23;;;3.70;99.90;;;;;;5269780;28;20032;-80
2023/01/07 06:58:00;;;;;;;21.00;12.88;;;3.70;99.90;;;;;;5269909;28;20016;-79
2023/01/07 07:00:31;;;;;;;25.38;17.10;;;4.10;99.90;;;;;;5268516;28;20039;-78
2023/01/07 07:03:02;;;;;;;31.55;18.65;;;4.10;99.90;;;;;;5268931;28;20057;-78
2023/01/07 07:05:35;;;;;;;33.00;17.45;;;4.40;99.90;;;;;;5270049;28;20039;-79
2023/01/07 07:08:06;;;;;;;29.05;18.27;;;4.50;99.90;;;;;;5269672;28;20099;-80
2023/01/07 07:10:37;;;;;;;24.92;15.15;;;4.40;99.90;;;;;;5269673;28;20166;-78
2023/01/07 07:13:08;;;;;;;24.30;17.02;;;4.50;99.90;;;;;;5268420;28;20491;-79
2023/01/07 07:15:39;;;;;;;31.42;19.10;;;4.60;99.90;;;;;;5269694;28;20035;-79
2023/01/07 07:18:10;;;;;;;37.17;21.45;;;4.70;99.90;;;;;;5269362;28;20024;-78
2023/01/07 07:20:41;;;;;;;38.88;22.30;;;4.80;99.90;;;;;;5269481;28;20032;-78
2023/01/07 07:23:11;;;;;;;33.67;19.42;;;4.90;99.90;;;;;;5268502;28;20476;-78
2023/01/07 07:25:42;;;;;;;38.20;21.00;;;5.20;99.90;;;;;;5269162;28;20822;-79
2023/01/07 07:28:13;;;;;;;36.20;21.42;;;5.30;99.90;;;;;;5246015;28;20354;-79
2023/01/07 07:30:44;;;;;;;36.13;20.05;;;5.50;99.90;;;;;;5227322;28;20564;-80
2023/01/07 07:33:17;;;;;;;26.08;14.20;;;5.50;99.90;;;;;;5227787;28;20083;-79
2023/01/07 07:35:48;;;;;;;41.25;23.45;;;5.80;99.90;;;;;;5225927;28;20570;-79
2023/01/07 07:38:19;;;;;;;35.92;20.23;;;5.90;99.90;;;;;;5226017;28;20040;-79
2023/01/07 07:40:52;;;;;;;29.45;17.95;;;6.20;99.90;;;;;;5226642;28;20048;-80
2023/01/07 07:43:22;;;;;;;23.67;14.10;;;6.30;99.90;;;;;;5227922;28;20029;-79
2023/01/07 07:45:53;;;;;;;17.90;10.98;;;6.40;99.90;;;;;;5226263;28;20025;-80
2023/01/07 07:48:24;;;;;;;25.40;13.60;;;6.60;99.90;;;;;;5227600;28;20431;-78
2023/01/07 07:50:55;;;;;;;29.17;17.13;;;6.60;99.90;;;;;;5227543;28;20049;-81
2023/01/07 07:53:26;;;;;;;24.70;15.35;;;6.80;99.90;;;;;;5227930;28;20018;-80
2023/01/07 07:55:57;;;;;;;29.00;17.20;;;6.80;99.90;;;;;;5226460;28;20036;-81
2023/01/07 07:58:28;;;;;;;29.40;16.17;;;6.80;99.90;;;;;;5227768;28;20032;-80
2023/01/07 08:00:59;;;;;;;32.03;16.00;;;6.80;99.90;;;;;;5227512;28;20116;-81
2023/01/07 08:03:29;;;;;;;38.70;20.60;;;6.80;99.90;;;;;;5227505;28;20057;-80
2023/01/07 08:06:02;;;;;;;32.50;21.05;;;6.90;99.90;;;;;;5226065;28;20078;-78
2023/01/07 08:08:32;;;;;;;26.75;17.45;;;7.00;99.90;;;;;;5226891;28;20028;-78
2023/01/07 08:11:03;;;;;;;17.95;12.70;;;7.30;99.90;;;;;;5227119;28;20029;-80
2023/01/07 08:13:34;;;;;;;14.05;9.30;;;7.70;99.90;;;;;;5227156;28;20029;-83
2023/01/07 08:16:05;;;;;;;16.80;10.48;;;8.00;99.90;;;;;;5227538;28;20024;-84
2023/01/07 08:18:36;;;;;;;30.10;20.13;;;8.20;99.90;;;;;;5227312;28;20025;-85
2023/01/07 08:21:07;;;;;;;23.83;16.27;;;8.50;99.90;;;;;;5226733;28;20380;-84
2023/01/07 08:23:38;;;;;;;25.52;18.52;;;8.70;99.90;;;;;;5225739;28;20112;-83
2023/01/07 08:26:09;;;;;;;37.70;25.27;;;8.70;99.90;;;;;;5225439;28;20025;-83
2023/01/07 08:28:39;;;;;;;32.15;17.75;;;9.00;99.90;;;;;;5226806;28;20095;-83
2023/01/07 08:31:10;;;;;;;30.40;22.92;;;8.90;99.90;;;;;;5226805;28;20021;-77
2023/01/07 08:33:41;;;;;;;22.40;17.90;;;9.20;99.90;;;;;;5225444;28;20025;-82
2023/01/07 08:36:12;;;;;;;15.27;9.20;;;9.60;99.90;;;;;;5225599;28;20516;-76
2023/01/07 08:38:43;;;;;;;8.95;6.68;;;9.90;99.90;;;;;;5224876;28;20056;-80
2023/01/07 08:41:14;;;;;;;7.13;5.90;;;10.10;99.90;;;;;;5226483;28;20127;-77
2023/01/07 08:43:45;;;;;;;13.18;8.13;;;10.60;99.90;;;;;;5228008;28;20032;-84
2023/01/07 08:46:16;;;;;;;12.60;6.25;;;11.00;99.90;;;;;;5230220;28;20036;-85
2023/01/07 08:48:47;;;;;;;9.23;5.63;;;11.30;99.90;;;;;;5230361;28;20025;-76
2023/01/07 08:51:18;;;;;;;10.82;6.45;;;11.40;99.90;;;;;;5231522;28;20503;-86
2023/01/07 08:53:48;;;;;;;10.07;6.30;;;11.70;99.90;;;;;;5237697;28;20048;-84
2023/01/07 08:56:20;;;;;;;8.10;4.25;;;11.90;99.90;;;;;;5228735;28;20021;-79
2023/01/07 08:58:51;;;;;;;20.77;7.57;;;12.00;99.90;;;;;;5229862;28;20035;-78
2023/01/07 09:01:22;;;;;;;9.13;4.05;;;12.30;99.90;;;;;;5230059;28;20025;-85
2023/01/07 09:03:53;;;;;;;6.97;4.00;;;12.30;99.90;;;;;;5229685;28;20036;-82
2023/01/07 09:06:24;;;;;;;11.68;4.03;;;12.40;99.90;;;;;;5229463;28;20020;-83
2023/01/07 09:08:54;;;;;;;10.25;5.38;;;12.40;99.90;;;;;;5237001;28;20029;-85
2023/01/07 09:11:25;;;;;;;7.47;4.22;;;12.80;99.90;;;;;;5243098;28;20123;-82
2023/01/07 09:13:56;;;;;;;8.13;4.70;;;13.20;99.90;;;;;;5250329;28;20111;-82
2023/01/07 09:16:27;;;;;;;9.80;4.65;;;13.10;99.90;;;;;;5243862;28;20080;-77
2023/01/07 09:18:58;;;;;;;10.52;5.32;;;13.10;99.90;;;;;;5228157;28;20566;-79
2023/01/07 09:21:29;;;;;;;12.20;4.53;;;13.30;99.90;;;;;;5229605;28;20017;-85
2023/01/07 09:23:59;;;;;;;6.47;4.28;;;13.30;99.90;;;;;;5229489;28;20104;-88
2023/01/07 09:26:30;;;;;;;8.05;5.20;;;13.50;99.90;;;;;;5245663;28;20358;-81
2023/01/07 09:29:01;;;;;;;8.82;5.00;;;13.90;99.90;;;;;;5229271;28;20032;-84
2023/01/07 09:31:32;;;;;;;7.35;4.55;;;14.10;99.90;;;;;;5229276;28;20025;-77
2023/01/07 09:34:03;;;;;;;10.68;5.40;;;13.90;99.90;;;;;;5229376;28;20096;-82
2023/01/07 09:36:34;;;;;;;7.57;4.68;;;13.80;99.90;;;;;;5241356;28;20025;-83
2023/01/07 09:39:04;;;;;;;8.18;4.55;;;13.90;99.90;;;;;;5253253;28;20456;-77
2023/01/07 09:41:54;;;;;;;9.02;5.45;;;14.10;99.90;;;;;;5249739;28;20060;-84
2023/01/07 09:44:44;;;;;;;12.50;5.97;;;14.40;99.90;;;;;;5249780;28;20067;-84
2023/01/07 09:47:18;;;;;;;11.52;5.40;;;14.60;99.90;;;;;;5249815;28;20032;-81
2023/01/07 09:49:54;;;;;;;8.82;5.43;;;14.70;99.90;;;;;;5249663;28;20024;-77
2023/01/07 09:52:35;;;;;;;8.95;4.55;;;14.60;99.90;;;;;;5249501;28;20024;-77
2023/01/07 09:55:33;;;;;;;10.70;5.25;;;14.40;99.90;;;;;;5249272;28;20472;-76
2023/01/07 09:58:04;;;;;;;9.32;5.68;;;14.30;99.90;;;;;;5243407;28;20476;-77
2023/01/07 10:00:37;;;;;;;7.82;4.60;;;14.10;99.90;;;;;;5249004;28;20111;-77
2023/01/07 10:03:36;;;;;;;9.82;4.65;;;13.90;99.90;;;;;;5249059;28;20056;-77
2023/01/07 10:06:34;;;;;;;7.80;3.95;;;13.80;99.90;;;;;;5249226;28;20416;-87
2023/01/07 10:09:23;;;;;;;9.23;4.53;;;13.70;99.90;;;;;;5248813;28;20109;-77
2023/01/07 10:12:00;;;;;;;6.88;4.68;;;13.70;99.90;;;;;;5247601;28;20367;-76
2023/01/07 10:15:05;;;;;;;9.85;5.35;;;13.70;99.90;;;;;;5248997;28;20032;-87
2023/01/07 10:18:14;;;;;;;9.85;5.90;;;13.80;99.90;;;;;;5228624;28;20060;-76
2023/01/07 10:20:54;;;;;;;11.43;5.00;;;13.60;99.90;;;;;;5248731;28;20491;-84
2023/01/07 10:23:34;;;;;;;16.55;8.77;;;13.40;99.90;;;;;;5248892;28;20403;-75
2023/01/07 10:26:12;;;;;;;16.17;7.68;;;13.30;99.90;;;;;;5248538;28;20008;-77
2023/01/07 10:28:53;;;;;;;17.10;8.50;;;13.50;99.90;;;;;;5248643;28;20028;-82
2023/01/07 10:31:26;;;;;;;10.13;5.20;;;13.60;99.90;;;;;;5247130;28;20048;-80
2023/01/07 10:33:58;;;;;;;19.08;9.45;;;14.40;99.90;;;;;;5246413;28;20476;-77
2023/01/07 10:36:38;;;;;;;10.60;5.72;;;14.70;99.90;;;;;;5234213;28;20021;-78
2023/01/07 10:39:33;;;;;;;21.77;9.43;;;14.70;99.90;;;;;;5247489;28;20080;-80
2023/01/07 10:42:19;;;;;;;8.88;3.80;;;14.80;99.90;;;;;;5261089;28;20083;-78
2023/01/07 10:45:08;;;;;;;5.78;3.15;;;15.20;99.90;;;;;;5226250;28;20025;-76
2023/01/07 10:48:00;;;;;;;8.48;4.32;;;15.20;99.90;;;;;;5227519;28;20032;-77
2023/01/07 10:50:42;;;;;;;7.07;4.28;;;15.00;99.90;;;;;;5226453;28;20082;-81
2023/01/07 10:53:40;;;;;;;12.50;8.05;;;15.20;99.90;;;;;;5228878;28;20115;-79
2023/01/07 10:56:29;;;;;;;9.50;5.35;;;15.60;99.90;;;;;;5227972;28;20033;-77
2023/01/07 10:59:00;;;;;;;7.60;4.63;;;15.60;99.90;;;;;;5227817;28;20028;-88
2023/01/07 11:01:37;;;;;;;8.20;4.88;;;15.60;99.90;;;;;;5227470;28;20044;-87
2023/01/07 11:04:13;;;;;;;7.18;4.50;;;15.60;99.90;;;;;;5241151;28;20388;-82
2023/01/07 11:07:28;;;;;;;8.88;5.13;;;15.70;99.90;;;;;;5238554;28;20142;-86
2023/01/07 11:10:03;;;;;;;10.05;5.32;;;16.10;99.90;;;;;;5204561;28;20115;-77
2023/01/07 11:12:41;;;;;;;8.77;4.80;;;15.70;99.90;;;;;;5231856;28;20037;-81
2023/01/07 11:15:24;;;;;;;10.20;4.90;;;15.80;99.90;;;;;;5237569;28;20021;-82
2023/01/07 11:18:00;;;;;;;13.23;4.88;;;16.00;99.90;;;;;;5229280;28;20021;-76
2023/01/07 11:20:45;;;;;;;11.75;5.32;;;16.00;99.90;;;;;;5227041;28;20061;-79
2023/01/07 11:23:37;;;;;;;12.95;4.93;;;16.30;99.90;;;;;;5236083;28;20028;-77
2023/01/07 11:26:16;;;;;;;7.43;4.28;;;16.40;99.90;;;;;;5234390;28;20481;-78
2023/01/07 11:28:56;;;;;;;10.43;4.30;;;15.60;99.90;;;;;;5227015;28;20032;-77
2023/01/07 11:32:04;;;;;;;5.68;3.75;;;15.90;99.90;;;;;;5225513;28;20017;-87
2023/01/07 11:34:58;;;;;;;7.32;3.55;;;16.00;99.90;;;;;;5194870;28;20376;-87
2023/01/07 11:37:38;;;;;;;6.72;3.60;;;16.00;99.90;;;;;;5226437;28;20373;-76
2023/01/07 11:40:11;;;;;;;5.78;3.70;;;16.30;99.90;;;;;;5226506;28;20049;-85
2023/01/07 11:43:19;;;;;;;9.25;4.03;;;16.00;99.90;;;;;;5225290;28;20033;-76
2023/01/07 11:45:54;;;;;;;5.38;3.97;;;15.60;99.90;;;;;;5225553;28;20476;-79
2023/01/07 11:48:30;;;;;;;10.38;4.35;;;15.90;99.90;;;;;;5225172;28;20020;-75
2023/01/07 11:51:04;;;;;;;8.30;4.10;;;15.50;99.90;;;;;;5225233;28;20017;-78
2023/01/07 11:53:37;;;;;;;8.75;4.00;;;15.80;99.90;;;;;;5226519;28;20025;-84
2023/01/07 11:56:12;;;;;;;7.03;3.60;;;16.00;99.90;;;;;;5226500;28;20029;-79
2023/01/07 11:58:46;;;;;;;6.85;3.88;;;15.60;99.90;;;;;;5226647;28;20473;-76
2023/01/07 12:01:18;;;;;;;8.60;4.18;;;15.10;99.90;;;;;;5226607;28;20372;-88
2023/01/07 12:03:51;;;;;;;7.63;3.63;;;15.30;99.90;;;;;;5226378;28;20029;-77
2023/01/07 12:06:34;;;;;;;8.98;3.92;;;15.10;99.90;;;;;;5226668;28;20052;-88
2023/01/07 12:09:20;;;;;;;4.80;3.35;;;15.80;99.90;;;;;;5226329;28;20028;-86
2023/01/07 12:11:53;;;;;;;6.32;3.30;;;15.20;99.90;;;;;;5225231;28;20032;-77
2023/01/07 12:14:27;;;;;;;9.43;3.67;;;15.20;99.90;;;;;;5235339;28;20392;-87
2023/01/07 12:17:14;;;;;;;7.50;3.92;;;14.80;99.90;;;;;;5248938;28;20361;-78
2023/01/07 12:20:04;;;;;;;7.22;3.60;;;14.40;99.90;;;;;;5251077;28;20043;-76
2023/01/07 12:23:03;;;;;;;11.73;4.50;;;14.20;99.90;;;;;;5251027;28;20091;-76
2023/01/07 12:26:15;;;;;;;6.00;3.58;;;14.20;99.90;;;;;;5249583;28;20158;-77
2023/01/07 12:29:10;;;;;;;7.35;4.18;;;13.90;99.90;;;;;;5207213;28;20362;-76
2023/01/07 12:31:53;;;;;;;9.43;4.20;;;14.10;99.90;;;;;;5248848;28;20040;-76
2023/01/07 12:34:48;;;;;;;7.03;4.03;;;14.00;99.90;;;;;;5250709;28;20082;-76
2023/01/07 12:37:36;;;;;;;8.10;4.05;;;13.80;99.90;;;;;;5250373;28;20352;-75
2023/01/07 12:40:15;;;;;;;7.43;4.03;;;13.50;99.90;;;;;;5248917;28;20055;-86
2023/01/07 12:42:58;;;;;;;6.15;3.97;;;13.60;99.90;;;;;;5249308;28;20496;-75
2023/01/07 12:45:46;;;;;;;10.18;4.03;;;13.30;99.90;;;;;;5250692;28;20025;-77
2023/01/07 12:48:21;;;;;;;8.25;3.92;;;13.20;99.90;;;;;;5249211;28;20023;-76
2023/01/07 12:50:55;;;;;;;9.65;5.20;;;13.30;99.90;;;;;;5249226;28;20107;-78
2023/01/07 12:53:35;;;;;;;10.18;4.82;;;13.30;99.90;;;;;;5250542;28;20412;-77
2023/01/07 12:56:22;;;;;;;13.93;7.25;;;13.20;99.90;;;;;;5246565;28;20039;-89
2023/01/07 12:58:59;;;;;;;9.70;5.47;;;13.20;99.90;;;;;;5248697;28;20058;-76
2023/01/07 13:01:59;;;;;;;8.45;4.57;;;13.20;99.90;;;;;;5249065;28;20044;-79
2023/01/07 13:04:46;;;;;;;8.48;5.65;;;13.30;99.90;;;;;;5250368;28;20149;-86
2023/01/07 13:07:39;;;;;;;8.50;4.45;;;12.90;99.90;;;;;;5250343;28;20413;-76
2023/01/07 13:10:23;;;;;;;5.22;3.38;;;12.80;99.90;;;;;;5250210;28;20028;-76
2023/01/07 13:13:00;;;;;;;7.30;3.88;;;12.80;99.90;;;;;;5250057;28;20039;-77
2023/01/07 13:15:34;;;;;;;6.57;4.03;;;12.70;99.90;;;;;;5249139;28;20107;-86
2023/01/07 13:18:16;;;;;;;8.75;4.20;;;12.70;99.90;;;;;;5248846;28;20074;-76
2023/01/07 13:21:04;;;;;;;11.07;5.63;;;12.50;99.90;;;;;;5250096;28;20036;-76
2023/01/07 13:23:53;;;;;;;8.98;5.00;;;12.20;99.90;;;;;;5248829;28;20021;-86
2023/01/07 13:26:58;;;;;;;11.63;6.03;;;12.10;99.90;;;;;;5249835;28;20033;-76
2023/01/07 13:29:44;;;;;;;11.15;6.13;;;12.00;99.90;;;;;;5247824;28;20028;-76
2023/01/07 13:32:36;;;;;;;7.78;5.15;;;12.10;99.90;;;;;;5249721;28;20047;-77